Time;durP1;ratioP1;P1;durP2;ratioP2;P2;SDS_P1;SDS_P2;PMS_P1;PMS_P2;Temp;Humidity;BMP_temperature;BMP_pressure;BME280_temperature;BME280_humidity;BME280_pressure;Samples;Min_cycle;Max_cycle;Signal;HPM_P1;HPM_P2
2022/04/18 00:02:06;;;;;;;4.13;2.90;;;9.50;1.00;;;;;;5073381;28;20251;-60
2022/04/18 00:04:34;;;;;;;3.60;2.93;;;9.60;1.00;;;;;;5073033;28;20847;-59
2022/04/18 00:07:01;;;;;;;4.70;2.80;;;9.60;1.00;;;;;;5073064;28;20213;-60
2022/04/18 00:09:29;;;;;;;5.03;3.10;;;9.60;1.00;;;;;;5073072;28;20229;-60
2022/04/18 00:11:57;;;;;;;5.20;2.97;;;9.60;1.00;;;;;;5073266;28;20585;-60
2022/04/18 00:14:24;;;;;;;5.40;2.93;;;9.50;1.00;;;;;;5072995;28;20213;-60
2022/04/18 00:16:51;;;;;;;3.93;2.87;;;9.50;1.00;;;;;;5072576;28;20307;-60
2022/04/18 00:19:17;;;;;;;5.60;2.90;;;9.40;1.00;;;;;;5073089;28;20228;-60
2022/04/18 00:21:45;;;;;;;5.83;3.10;;;9.50;1.00;;;;;;5073104;28;20216;-60
2022/04/18 00:24:14;;;;;;;4.77;2.67;;;9.50;1.00;;;;;;5072869;28;20636;-60
2022/04/18 00:26:40;;;;;;;4.00;2.97;;;9.50;1.00;;;;;;5069008;28;20220;-59
2022/04/18 00:29:08;;;;;;;4.03;2.80;;;9.60;1.00;;;;;;5072444;28;20221;-60
2022/04/18 00:31:35;;;;;;;5.87;2.80;;;9.50;1.00;;;;;;5072659;28;20675;-60
2022/04/18 00:34:02;;;;;;;4.63;2.60;;;9.50;1.00;;;;;;5072436;28;20257;-60
2022/04/18 00:36:29;;;;;;;3.77;2.40;;;9.50;1.00;;;;;;5072192;28;20243;-60
2022/04/18 00:38:55;;;;;;;4.83;2.77;;;9.60;2.10;;;;;;5072669;28;20254;-60
2022/04/18 00:41:22;;;;;;;3.60;2.30;;;9.60;1.00;;;;;;5072433;28;20217;-60
2022/04/18 00:43:50;;;;;;;3.30;2.43;;;9.50;1.00;;;;;;5072034;28;20632;-61
2022/04/18 00:46:20;;;;;;;3.37;2.40;;;9.50;11.20;;;;;;5071981;28;20205;-61
2022/04/18 00:48:47;;;;;;;3.37;2.73;;;9.40;1.00;;;;;;5072313;28;20254;-60
2022/04/18 00:51:16;;;;;;;3.23;2.50;;;9.40;1.00;;;;;;5072411;28;20215;-59
2022/04/18 00:53:44;;;;;;;4.70;3.07;;;9.40;1.00;;;;;;5072463;28;20209;-60
2022/04/18 00:56:13;;;;;;;5.07;2.77;;;9.30;1.00;;;;;;5071729;28;20229;-60
2022/04/18 00:58:42;;;;;;;3.90;2.20;;;9.30;1.00;;;;;;5071928;28;20734;-60
2022/04/18 01:01:09;;;;;;;3.73;2.93;;;9.30;1.00;;;;;;5072241;28;20258;-59
2022/04/18 01:03:37;;;;;;;3.67;2.50;;;9.20;1.00;;;;;;5072076;28;20209;-60
2022/04/18 01:06:05;;;;;;;4.50;3.00;;;9.20;1.00;;;;;;5072023;28;20209;-60
2022/04/18 01:08:33;;;;;;;5.20;2.93;;;9.20;1.00;;;;;;5072164;28;20229;-60
2022/04/18 01:11:00;;;;;;;4.40;2.70;;;9.20;1.00;;;;;;5071935;28;20273;-60
2022/04/18 01:13:28;;;;;;;4.23;1.90;;;9.10;1.00;;;;;;5071680;28;20266;-59
2022/04/18 01:15:56;;;;;;;3.73;2.50;;;9.20;1.00;;;;;;5071663;28;20274;-58
2022/04/18 01:18:23;;;;;;;4.47;2.40;;;9.10;1.00;;;;;;5071692;28;20225;-57
2022/04/18 01:20:51;;;;;;;3.77;2.60;;;9.00;1.00;;;;;;5071929;28;20205;-60
2022/04/18 01:23:18;;;;;;;4.10;2.77;;;9.00;1.00;;;;;;5071370;28;20679;-59
2022/04/18 01:31:14;;;;;;;3.13;2.50;;;8.90;1.00;;;;;;5071708;28;20215;-59
2022/04/18 01:33:41;;;;;;;3.00;2.30;;;8.80;1.00;;;;;;5071446;28;20217;-57
2022/04/18 01:36:09;;;;;;;5.63;2.70;;;8.80;1.00;;;;;;5071069;28;20229;-60
2022/04/18 01:38:35;;;;;;;4.17;2.83;;;8.80;1.00;;;;;;5071543;28;20229;-59
2022/04/18 01:41:02;;;;;;;4.07;2.80;;;8.80;8.10;;;;;;5071454;28;20250;-59
2022/04/18 01:43:29;;;;;;;3.37;2.30;;;8.70;1.00;;;;;;5071362;28;20227;-59
2022/04/18 01:45:55;;;;;;;5.17;2.23;;;8.70;1.00;;;;;;5071258;28;20228;-61
2022/04/18 01:48:22;;;;;;;4.10;2.57;;;8.70;1.00;;;;;;5071381;28;20227;-60
2022/04/18 01:50:49;;;;;;;2.63;2.43;;;8.70;1.00;;;;;;5070899;28;20262;-61
2022/04/18 01:53:17;;;;;;;3.33;2.47;;;8.70;1.00;;;;;;5071614;28;20200;-61
2022/04/18 01:55:43;;;;;;;3.57;2.10;;;8.70;1.00;;;;;;5070195;28;20346;-59
2022/04/18 01:58:10;;;;;;;3.00;2.50;;;8.70;1.00;;;;;;5071172;28;20236;-60
2022/04/18 02:00:37;;;;;;;3.13;2.20;;;8.60;1.00;;;;;;5071319;28;20201;-61
2022/04/18 02:03:04;;;;;;;3.03;2.17;;;8.70;1.00;;;;;;5071248;28;20291;-61
2022/04/18 02:05:31;;;;;;;4.57;2.13;;;8.70;1.00;;;;;;5071306;28;20205;-60
2022/04/18 02:07:57;;;;;;;2.30;2.00;;;8.60;1.00;;;;;;5070936;28;20732;-61
2022/04/18 02:10:25;;;;;;;4.57;2.10;;;8.60;1.00;;;;;;5070928;28;20209;-57
2022/04/18 02:12:52;;;;;;;3.50;2.33;;;8.60;1.00;;;;;;5071248;28;20207;-60
2022/04/18 02:15:19;;;;;;;3.53;2.13;;;8.60;1.00;;;;;;5070699;28;20278;-60
2022/04/18 02:17:45;;;;;;;4.97;2.50;;;8.60;1.00;;;;;;5070574;28;20662;-58
2022/04/18 02:20:12;;;;;;;4.70;2.73;;;8.60;1.00;;;;;;5071206;28;20748;-60
2022/04/18 02:22:39;;;;;;;3.03;1.90;;;8.60;1.00;;;;;;5070946;28;20254;-60
2022/04/18 02:25:08;;;;;;;2.80;2.10;;;8.70;1.00;;;;;;5070952;28;20209;-61
2022/04/18 02:27:36;;;;;;;2.20;2.00;;;8.70;1.00;;;;;;5070603;28;20252;-60
2022/04/18 02:30:03;;;;;;;3.17;2.27;;;8.70;1.00;;;;;;5071163;28;20639;-61
2022/04/18 02:32:48;;;;;;;3.63;2.30;;;8.60;1.00;;;;;;5070799;28;20691;-61
2022/04/18 02:35:16;;;;;;;4.67;2.20;;;8.60;1.00;;;;;;5070965;28;20300;-61
2022/04/18 02:37:42;;;;;;;2.73;2.30;;;8.60;1.00;;;;;;5070442;28;20328;-61
2022/04/18 02:40:10;;;;;;;3.27;2.43;;;8.60;1.00;;;;;;5070740;28;20208;-59
2022/04/18 02:42:39;;;;;;;3.13;2.30;;;8.60;1.00;;;;;;5070818;28;20213;-61
2022/04/18 02:45:06;;;;;;;3.67;2.53;;;8.60;1.00;;;;;;5070888;28;20211;-61
2022/04/18 02:47:33;;;;;;;3.40;2.83;;;8.60;1.00;;;;;;5070543;28;20237;-60
2022/04/18 02:50:00;;;;;;;5.97;2.23;;;8.60;1.00;;;;;;5070795;28;20208;-61
2022/04/18 02:52:26;;;;;;;3.07;2.40;;;8.60;1.00;;;;;;5070887;28;20209;-60
2022/04/18 02:54:53;;;;;;;3.57;2.27;;;8.50;1.00;;;;;;5070595;28;20205;-60
2022/04/18 02:57:20;;;;;;;2.60;2.10;;;8.60;2.30;;;;;;5070171;28;20235;-60
2022/04/18 02:59:48;;;;;;;3.10;2.50;;;8.50;1.00;;;;;;5070659;28;20274;-60
2022/04/18 03:02:14;;;;;;;3.20;1.90;;;8.50;1.00;;;;;;5071635;28;20213;-59
2022/04/18 03:04:41;;;;;;;3.07;2.33;;;8.50;1.00;;;;;;5071588;28;20209;-60
2022/04/18 03:07:08;;;;;;;5.77;2.53;;;8.40;1.00;;;;;;5072381;28;20620;-58
2022/04/18 03:09:34;;;;;;;2.73;2.23;;;8.40;1.00;;;;;;5076032;28;20225;-60
2022/04/18 03:12:02;;;;;;;2.57;2.37;;;8.30;1.00;;;;;;5074655;28;20405;-61
2022/04/18 03:14:28;;;;;;;4.10;2.27;;;8.30;1.00;;;;;;5074475;28;20207;-60
2022/04/18 03:16:56;;;;;;;4.57;2.70;;;8.30;1.00;;;;;;5073969;28;20224;-61
2022/04/18 03:19:23;;;;;;;3.40;2.20;;;8.30;1.00;;;;;;5074064;28;20228;-61
2022/04/18 03:21:50;;;;;;;4.20;2.70;;;8.30;11.80;;;;;;5074080;28;20225;-60
2022/04/18 03:24:16;;;;;;;3.40;2.47;;;8.30;1.00;;;;;;5073954;28;20207;-60
2022/04/18 03:26:43;;;;;;;2.87;2.27;;;8.30;1.00;;;;;;5073395;28;20209;-60
2022/04/18 03:29:10;;;;;;;3.47;2.37;;;8.30;1.20;;;;;;5073977;28;20235;-58
2022/04/18 03:31:37;;;;;;;3.40;2.30;;;8.30;1.20;;;;;;5073971;28;20736;-59
2022/04/18 03:34:05;;;;;;;2.23;2.00;;;8.30;1.00;;;;;;5073733;28;20623;-60
2022/04/18 03:42:15;;;;;;;2.30;2.10;;;8.20;1.60;;;;;;5011606;28;20245;-60
2022/04/18 03:44:43;;;;;;;4.07;2.43;;;8.20;1.60;;;;;;5046344;28;20213;-60
2022/04/18 03:47:11;;;;;;;2.63;2.40;;;8.20;1.90;;;;;;5073018;28;20308;-60
2022/04/18 03:49:39;;;;;;;4.57;2.27;;;8.10;1.60;;;;;;5073459;28;20644;-60
2022/04/18 03:52:07;;;;;;;4.13;2.60;;;8.10;1.80;;;;;;5073357;28;20698;-60
2022/04/18 03:54:35;;;;;;;7.13;4.37;;;8.10;1.70;;;;;;5073667;28;20274;-60
2022/04/18 03:57:01;;;;;;;7.87;4.83;;;8.20;2.60;;;;;;5073029;28;20490;-60
2022/04/18 03:59:28;;;;;;;4.37;2.90;;;8.20;3.30;;;;;;5073548;28;20266;-60
2022/04/18 04:01:55;;;;;;;4.03;2.83;;;8.20;3.00;;;;;;5073130;28;20209;-60
2022/04/18 04:04:22;;;;;;;3.33;2.77;;;8.20;3.30;;;;;;5073721;28;20216;-63
2022/04/18 04:06:50;;;;;;;2.87;2.57;;;8.10;3.10;;;;;;5073080;28;20266;-60
2022/04/18 04:09:17;;;;;;;3.00;2.20;;;8.10;3.00;;;;;;5073288;28;20275;-61
2022/04/18 04:11:43;;;;;;;4.33;2.50;;;8.10;3.40;;;;;;5073170;28;20265;-60
2022/04/18 04:14:10;;;;;;;3.33;2.40;;;8.00;3.10;;;;;;5073099;28;20210;-61
2022/04/18 04:16:37;;;;;;;2.93;2.43;;;8.00;3.20;;;;;;5072619;28;20224;-61
2022/04/18 04:19:04;;;;;;;3.03;2.03;;;8.00;3.80;;;;;;5071972;28;20238;-61
2022/04/18 04:21:31;;;;;;;3.53;2.23;;;8.00;3.50;;;;;;5073139;28;20209;-60
2022/04/18 04:23:59;;;;;;;2.40;2.20;;;8.00;3.60;;;;;;5072894;28;20210;-60
2022/04/18 04:26:25;;;;;;;3.33;2.17;;;8.00;4.10;;;;;;5072607;28;20211;-60
2022/04/18 04:28:52;;;;;;;3.40;2.30;;;8.00;3.90;;;;;;5072453;28;20293;-59
2022/04/18 04:31:19;;;;;;;2.93;2.33;;;8.00;4.40;;;;;;5073215;28;20534;-61
2022/04/18 04:33:46;;;;;;;3.63;2.67;;;8.00;4.40;;;;;;5072703;28;20212;-58
2022/04/18 04:36:13;;;;;;;3.70;2.23;;;8.10;5.50;;;;;;5072255;28;20278;-60
2022/04/18 04:38:40;;;;;;;3.53;2.60;;;8.20;5.20;;;;;;5072567;28;20228;-60
2022/04/18 04:41:08;;;;;;;3.57;2.30;;;8.20;5.30;;;;;;5072573;28;20260;-61
2022/04/18 04:43:35;;;;;;;3.30;2.43;;;8.10;5.50;;;;;;5072545;28;20209;-60
2022/04/18 04:46:01;;;;;;;4.10;2.53;;;8.20;5.80;;;;;;5072185;28;20205;-60
2022/04/18 04:48:28;;;;;;;4.33;2.73;;;8.20;6.00;;;;;;5072375;28;20305;-60
2022/04/18 04:50:55;;;;;;;2.23;2.00;;;8.10;18.50;;;;;;5072287;28;20230;-61
2022/04/18 04:53:22;;;;;;;4.33;2.27;;;8.20;6.20;;;;;;5072498;28;20207;-60
2022/04/18 04:55:49;;;;;;;4.47;2.40;;;8.20;6.80;;;;;;5072061;28;20563;-59
2022/04/18 04:58:17;;;;;;;4.60;2.40;;;8.10;6.30;;;;;;5071786;28;20745;-61
2022/04/18 05:00:44;;;;;;;3.73;2.23;;;8.10;7.30;;;;;;5071965;28;20759;-60
2022/04/18 05:03:11;;;;;;;3.43;2.50;;;8.10;7.50;;;;;;5072193;28;20622;-60
2022/04/18 05:05:37;;;;;;;2.47;1.80;;;8.10;6.60;;;;;;5071738;28;20239;-59
2022/04/18 05:08:05;;;;;;;2.97;2.40;;;8.20;8.10;;;;;;5071501;28;20282;-61
2022/04/18 05:10:31;;;;;;;5.73;2.13;;;8.20;7.60;;;;;;5072073;28;20622;-60
2022/04/18 05:12:58;;;;;;;2.97;2.30;;;8.20;9.00;;;;;;5071741;28;20205;-61
2022/04/18 05:15:26;;;;;;;4.40;2.43;;;8.20;8.40;;;;;;5072015;28;20212;-61
2022/04/18 05:17:52;;;;;;;3.93;2.30;;;8.30;8.10;;;;;;5071551;28;20233;-61
2022/04/18 05:20:19;;;;;;;3.33;2.23;;;8.30;8.60;;;;;;5072075;28;20636;-61
2022/04/18 05:22:46;;;;;;;2.87;2.30;;;8.40;9.50;;;;;;5071974;28;20262;-60
2022/04/18 05:25:13;;;;;;;2.00;1.60;;;8.40;10.00;;;;;;5071725;28;20208;-60
2022/04/18 05:27:39;;;;;;;4.97;2.73;;;8.40;9.70;;;;;;5071608;28;20227;-60
2022/04/18 05:30:07;;;;;;;4.33;2.33;;;8.40;10.10;;;;;;5071946;28;20209;-60
2022/04/18 05:32:35;;;;;;;4.03;2.10;;;8.50;10.40;;;;;;5071675;28;20224;-60
2022/04/18 05:35:02;;;;;;;3.13;2.10;;;8.50;10.60;;;;;;5071747;28;20212;-58
2022/04/18 05:37:29;;;;;;;4.60;2.40;;;8.60;11.30;;;;;;5071029;28;20246;-60
2022/04/18 05:39:55;;;;;;;4.57;2.57;;;8.70;12.30;;;;;;5071664;28;20205;-60
2022/04/18 05:42:25;;;;;;;3.77;2.50;;;8.80;12.50;;;;;;5071880;28;20262;-60
2022/04/18 05:44:52;;;;;;;3.20;2.10;;;8.80;13.00;;;;;;5071611;28;20266;-60
2022/04/18 05:47:19;;;;;;;3.80;2.40;;;8.80;13.00;;;;;;5071342;28;20270;-61
2022/04/18 05:49:47;;;;;;;3.80;2.60;;;8.90;13.70;;;;;;5071431;28;20259;-60
2022/04/18 05:52:15;;;;;;;4.17;2.20;;;9.00;14.60;;;;;;5071574;28;20209;-60
2022/04/18 05:54:41;;;;;;;4.90;2.00;;;9.00;14.70;;;;;;5071136;28;20411;-61
2022/04/18 05:57:08;;;;;;;2.40;1.80;;;9.10;15.60;;;;;;5071213;28;20236;-61
2022/04/18 05:59:35;;;;;;;3.60;2.57;;;9.10;16.40;;;;;;5071620;28;20229;-61
2022/04/18 06:02:02;;;;;;;5.43;2.17;;;9.20;16.00;;;;;;5071604;28;20205;-60
2022/04/18 06:04:28;;;;;;;3.50;2.20;;;9.30;17.00;;;;;;5071303;28;20205;-60
2022/04/18 06:06:56;;;;;;;3.17;2.07;;;9.30;17.60;;;;;;5070954;28;20667;-60
2022/04/18 06:09:23;;;;;;;3.23;2.60;;;9.40;18.50;;;;;;5071202;28;20366;-60
2022/04/18 06:11:50;;;;;;;3.67;2.60;;;9.50;19.10;;;;;;5071475;28;20212;-59
2022/04/18 06:14:16;;;;;;;4.93;2.43;;;9.50;18.80;;;;;;5071553;28;20251;-60
2022/04/18 06:16:43;;;;;;;3.83;2.70;;;9.50;19.40;;;;;;5070736;28;20221;-60
2022/04/18 06:19:10;;;;;;;5.53;2.60;;;9.50;19.10;;;;;;5070909;28;20309;-61
2022/04/18 06:21:36;;;;;;;6.07;2.30;;;9.60;19.20;;;;;;5070766;28;20300;-59
2022/04/18 06:24:05;;;;;;;3.77;2.43;;;9.60;19.10;;;;;;5071371;28;20555;-61
2022/04/18 06:26:31;;;;;;;3.87;2.27;;;9.70;20.00;;;;;;5070842;28;20251;-60
2022/04/18 06:28:58;;;;;;;5.37;2.47;;;9.70;19.10;;;;;;5071343;28;20278;-59
2022/04/18 06:31:25;;;;;;;4.33;2.40;;;9.80;20.30;;;;;;5071034;28;20213;-60
2022/04/18 06:33:52;;;;;;;4.53;2.30;;;10.00;21.30;;;;;;5071109;28;20595;-58
2022/04/18 06:36:18;;;;;;;2.90;1.80;;;10.10;22.00;;;;;;5070675;28;20212;-59
2022/04/18 06:38:45;;;;;;;2.83;1.90;;;10.30;21.60;;;;;;5061541;28;20284;-64
2022/04/18 06:41:13;;;;;;;2.87;1.93;;;10.40;22.50;;;;;;5069963;28;20210;-63
2022/04/18 06:43:40;;;;;;;4.20;2.30;;;10.40;22.70;;;;;;5073861;28;20659;-63
2022/04/18 06:46:07;;;;;;;2.53;1.90;;;10.50;23.50;;;;;;5074482;28;20339;-60
2022/04/18 06:48:33;;;;;;;3.43;2.20;;;10.60;25.20;;;;;;5074083;28;20235;-65
2022/04/18 06:51:00;;;;;;;4.70;2.40;;;10.70;24.10;;;;;;5074317;28;20561;-62
2022/04/18 06:53:28;;;;;;;3.47;2.10;;;10.70;26.00;;;;;;5074411;28;20240;-63
2022/04/18 06:58:52;;;;;;;4.23;2.03;;;10.90;25.30;;;;;;5011712;28;20234;-61
2022/04/18 07:01:19;;;;;;;3.23;1.93;;;11.10;25.70;;;;;;5058966;28;20209;-62
2022/04/18 07:03:45;;;;;;;3.67;2.07;;;11.20;26.70;;;;;;5074161;28;20203;-63
2022/04/18 07:06:12;;;;;;;5.07;2.20;;;11.40;27.20;;;;;;5073930;28;20309;-64
2022/04/18 07:08:39;;;;;;;2.97;1.77;;;11.60;29.50;;;;;;5074055;28;20227;-63
2022/04/18 07:11:06;;;;;;;2.87;1.77;;;11.70;31.10;;;;;;5074251;28;20287;-63
2022/04/18 07:13:32;;;;;;;3.30;2.00;;;11.70;28.80;;;;;;5074345;28;20212;-63
2022/04/18 07:16:00;;;;;;;2.13;1.93;;;11.90;30.30;;;;;;5073593;28;20785;-64
2022/04/18 07:18:27;;;;;;;2.57;1.73;;;12.20;32.00;;;;;;5074071;28;20817;-64
2022/04/18 07:20:54;;;;;;;2.50;1.90;;;12.30;33.70;;;;;;5073732;28;20264;-60
2022/04/18 07:23:20;;;;;;;4.43;2.30;;;12.20;32.70;;;;;;5074113;28;20250;-61
2022/04/18 07:25:47;;;;;;;3.87;1.80;;;12.40;35.20;;;;;;5073665;28;20258;-60
2022/04/18 07:28:14;;;;;;;2.70;1.80;;;12.50;35.80;;;;;;5074611;28;20365;-59
2022/04/18 07:30:40;;;;;;;3.27;2.27;;;12.80;37.10;;;;;;5075827;28;20204;-62
2022/04/18 07:33:10;;;;;;;3.57;1.90;;;12.90;41.60;;;;;;5076142;28;20226;-61
2022/04/18 07:35:36;;;;;;;4.03;2.07;;;13.10;43.80;;;;;;5074455;28;20229;-61
2022/04/18 07:40:47;;;;;;;3.70;2.10;;;13.30;42.90;;;;;;5073167;28;20200;-63
2022/04/18 07:43:14;;;;;;;3.47;2.17;;;13.40;44.40;;;;;;5073601;28;20581;-63
2022/04/18 07:45:41;;;;;;;2.87;2.13;;;13.60;44.20;;;;;;5072791;28;20687;-63
2022/04/18 07:48:09;;;;;;;2.90;2.10;;;13.60;46.50;;;;;;5072852;28;20225;-62
2022/04/18 07:53:32;;;;;;;2.87;2.13;;;13.80;46.70;;;;;;5011083;28;20677;-62
2022/04/18 07:55:58;;;;;;;2.57;1.93;;;13.90;50.80;;;;;;5058133;28;20248;-62
2022/04/18 07:58:25;;;;;;;3.13;2.30;;;13.90;50.60;;;;;;5072992;28;20283;-62
2022/04/18 08:00:52;;;;;;;3.83;2.37;;;13.80;49.70;;;;;;5072999;28;20217;-62
2022/04/18 08:03:20;;;;;;;4.50;2.50;;;14.00;46.40;;;;;;5073182;28;20238;-64
2022/04/18 08:05:47;;;;;;;3.13;2.17;;;14.10;48.40;;;;;;5072897;28;20210;-62
2022/04/18 08:08:13;;;;;;;2.73;2.40;;;14.10;47.00;;;;;;5073163;28;20592;-60
2022/04/18 08:10:40;;;;;;;2.97;2.07;;;14.10;49.50;;;;;;5072945;28;20614;-61
2022/04/18 08:13:07;;;;;;;3.00;2.00;;;14.20;51.80;;;;;;5073314;28;20264;-60
2022/04/18 08:15:34;;;;;;;2.33;1.70;;;14.30;50.00;;;;;;5072805;28;20237;-60
2022/04/18 08:18:00;;;;;;;3.23;2.20;;;14.50;52.40;;;;;;5072447;28;20235;-60
2022/04/18 08:20:28;;;;;;;3.53;2.23;;;14.40;55.00;;;;;;5072531;28;20260;-60
2022/04/18 08:22:55;;;;;;;4.37;2.20;;;14.70;51.70;;;;;;5072887;28;20216;-60
2022/04/18 08:25:22;;;;;;;3.17;2.30;;;14.80;63.90;;;;;;5072935;28;20201;-65
2022/04/18 08:27:48;;;;;;;4.63;2.40;;;15.00;57.00;;;;;;5072552;28;20302;-67
2022/04/18 08:30:15;;;;;;;3.07;2.23;;;15.10;56.40;;;;;;5072597;28;20212;-64
2022/04/18 08:32:42;;;;;;;4.03;2.23;;;15.30;53.90;;;;;;5072415;28;20277;-67
2022/04/18 08:35:10;;;;;;;3.63;2.80;;;15.20;55.70;;;;;;5072656;28;20662;-65
2022/04/18 08:37:38;;;;;;;2.83;2.03;;;15.40;57.90;;;;;;5072114;28;20225;-63
2022/04/18 08:40:08;;;;;;;5.60;2.47;;;15.50;64.10;;;;;;5072288;28;20257;-63
2022/04/18 08:42:36;;;;;;;2.87;2.03;;;15.70;60.30;;;;;;5072632;28;20209;-63
2022/04/18 08:45:05;;;;;;;4.13;2.17;;;15.70;59.30;;;;;;5072302;28;20212;-60
2022/04/18 08:53:16;;;;;;;9.07;4.47;;;15.50;77.60;;;;;;5073874;28;20202;-68
2022/04/18 08:55:43;;;;;;;5.20;3.47;;;15.50;52.90;;;;;;5072374;28;20205;-62
2022/04/18 08:58:11;;;;;;;8.77;5.00;;;15.40;55.10;;;;;;5071719;28;20235;-62
2022/04/18 09:00:40;;;;;;;6.87;4.27;;;15.50;51.90;;;;;;5071669;28;20671;-61
2022/04/18 09:03:07;;;;;;;6.40;4.30;;;15.60;58.40;;;;;;5072094;28;20212;-62
2022/04/18 09:05:36;;;;;;;4.80;3.47;;;15.80;55.20;;;;;;5071570;28;20342;-62
2022/04/18 09:08:06;;;;;;;3.20;2.13;;;15.90;57.70;;;;;;5071532;28;20315;-62
2022/04/18 09:10:35;;;;;;;3.03;2.17;;;16.10;59.20;;;;;;5071406;28;20219;-69
2022/04/18 09:13:06;;;;;;;4.07;1.93;;;16.30;60.30;;;;;;5071820;28;20211;-63
2022/04/18 09:15:38;;;;;;;2.93;1.97;;;16.50;60.30;;;;;;5071562;28;20209;-61
2022/04/18 09:18:10;;;;;;;3.00;1.97;;;16.60;55.50;;;;;;5071162;28;20267;-60
2022/04/18 09:20:42;;;;;;;3.07;2.10;;;16.70;62.50;;;;;;5071398;28;20205;-62
2022/04/18 09:23:20;;;;;;;2.80;2.10;;;16.70;66.20;;;;;;5071416;28;20217;-60
2022/04/18 09:25:53;;;;;;;3.07;2.30;;;16.80;62.10;;;;;;5071610;28;20295;-65
2022/04/18 09:28:24;;;;;;;2.67;1.90;;;16.70;59.80;;;;;;5071327;28;20711;-65
2022/04/18 09:31:05;;;;;;;2.83;2.00;;;16.70;55.70;;;;;;5071591;28;20243;-61
2022/04/18 09:33:43;;;;;;;4.40;2.13;;;16.60;59.30;;;;;;5071577;28;20204;-61
2022/04/18 09:36:12;;;;;;;8.93;2.10;;;16.50;55.40;;;;;;5071261;28;20581;-61
2022/04/18 09:38:43;;;;;;;2.70;2.33;;;16.20;51.40;;;;;;5070957;28;20256;-61
2022/04/18 09:41:15;;;;;;;3.50;2.27;;;16.20;52.10;;;;;;5071196;28;20678;-61
2022/04/18 09:43:44;;;;;;;5.63;2.50;;;16.10;47.70;;;;;;5071478;28;20205;-62
2022/04/18 09:46:12;;;;;;;3.47;2.30;;;16.30;47.40;;;;;;5071139;28;20201;-61
2022/04/18 09:48:39;;;;;;;2.90;2.20;;;16.40;47.80;;;;;;5071371;28;20220;-61
2022/04/18 09:51:11;;;;;;;3.83;1.97;;;16.50;48.70;;;;;;5071374;28;20205;-62
2022/04/18 09:53:38;;;;;;;4.90;2.37;;;16.40;50.70;;;;;;5071267;28;20208;-64
2022/04/18 09:56:06;;;;;;;2.90;2.20;;;16.50;51.90;;;;;;5070543;28;20201;-65
2022/04/18 09:58:36;;;;;;;2.83;1.80;;;16.60;46.10;;;;;;5071230;28;20297;-66
2022/04/18 10:01:07;;;;;;;3.80;2.10;;;16.70;53.40;;;;;;5070825;28;20212;-67
2022/04/18 10:03:34;;;;;;;2.20;2.00;;;16.90;54.80;;;;;;5072036;28;20205;-66
2022/04/18 10:06:02;;;;;;;3.30;1.90;;;16.80;51.80;;;;;;5071101;28;20205;-65
2022/04/18 10:08:29;;;;;;;4.30;2.50;;;16.70;49.10;;;;;;5071305;28;20225;-67
2022/04/18 10:10:58;;;;;;;4.33;2.20;;;16.70;53.50;;;;;;5070892;28;20205;-67
2022/04/18 10:13:25;;;;;;;2.50;2.30;;;16.90;54.00;;;;;;5071450;28;20247;-66
2022/04/18 10:15:54;;;;;;;2.80;2.07;;;17.00;55.00;;;;;;5070547;28;20209;-62
2022/04/18 10:18:23;;;;;;;3.63;2.13;;;17.20;60.00;;;;;;5074014;28;20278;-62
2022/04/18 10:21:22;;;;;;;2.90;2.10;;;17.30;58.10;;;;;;5075740;28;20295;-61
2022/04/18 10:24:30;;;;;;;3.00;2.00;;;17.50;63.20;;;;;;5075196;28;20204;-62
2022/04/18 10:27:26;;;;;;;3.53;2.10;;;17.40;59.30;;;;;;5075302;28;20209;-62
2022/04/18 10:29:55;;;;;;;5.73;2.63;;;17.30;59.80;;;;;;5075249;28;20208;-63
2022/04/18 10:32:26;;;;;;;3.37;2.50;;;17.40;57.30;;;;;;5075439;28;20718;-61
2022/04/18 10:34:57;;;;;;;4.97;2.00;;;17.40;56.90;;;;;;5075176;28;20212;-63
2022/04/18 10:37:25;;;;;;;3.10;2.00;;;17.50;59.30;;;;;;5074707;28;20270;-62
2022/04/18 10:39:59;;;;;;;2.20;1.80;;;17.70;59.70;;;;;;5074613;28;20225;-62
2022/04/18 10:42:31;;;;;;;3.03;1.40;;;17.90;65.70;;;;;;5075034;28;20250;-62
2022/04/18 10:45:09;;;;;;;3.03;2.00;;;18.00;61.00;;;;;;5075342;28;20201;-63
2022/04/18 10:48:09;;;;;;;2.83;2.03;;;18.10;58.30;;;;;;5074747;28;20679;-67
2022/04/18 10:50:46;;;;;;;3.00;2.30;;;18.10;63.00;;;;;;5041087;28;20205;-62
2022/04/18 10:53:38;;;;;;;5.27;2.20;;;18.00;63.00;;;;;;5075125;28;20266;-62
2022/04/18 10:56:12;;;;;;;3.60;2.63;;;18.10;67.30;;;;;;5074541;28;20215;-62
2022/04/18 10:58:43;;;;;;;4.17;2.77;;;17.90;59.00;;;;;;5074530;28;20232;-61
2022/04/18 11:01:10;;;;;;;4.13;2.50;;;17.70;56.30;;;;;;5074730;28;20209;-62
2022/04/18 11:03:44;;;;;;;4.27;2.30;;;17.70;65.00;;;;;;5075019;28;20270;-62
2022/04/18 11:06:36;;;;;;;3.27;2.40;;;17.60;57.10;;;;;;5074277;28;20206;-61
2022/04/18 11:09:06;;;;;;;3.83;2.30;;;17.70;64.70;;;;;;5074314;28;20233;-61
2022/04/18 11:11:35;;;;;;;3.27;2.60;;;17.80;62.00;;;;;;5074841;28;20261;-63
2022/04/18 11:14:03;;;;;;;4.57;2.50;;;17.40;53.60;;;;;;5074611;28;20668;-62
2022/04/18 11:16:59;;;;;;;3.77;2.63;;;17.70;54.20;;;;;;5074877;28;20216;-62
2022/04/18 11:19:29;;;;;;;3.47;2.40;;;17.70;58.40;;;;;;5074268;28;20721;-63
2022/04/18 11:22:20;;;;;;;6.87;2.37;;;17.90;61.80;;;;;;5074626;28;20218;-63
2022/04/18 11:24:59;;;;;;;2.93;2.60;;;17.90;76.40;;;;;;5074387;28;20367;-61
2022/04/18 11:27:35;;;;;;;7.63;3.00;;;17.70;56.00;;;;;;5073937;28;20204;-62
2022/04/18 11:30:06;;;;;;;3.40;2.43;;;17.80;60.10;;;;;;5074030;28;20196;-63
2022/04/18 11:32:34;;;;;;;3.23;2.33;;;17.90;58.30;;;;;;5074313;28;20753;-63
2022/04/18 11:35:05;;;;;;;4.13;2.33;;;18.00;58.50;;;;;;5073953;28;20258;-63
2022/04/18 11:37:34;;;;;;;3.90;2.73;;;18.00;59.30;;;;;;5073375;28;20603;-63
2022/04/18 11:40:02;;;;;;;2.77;2.23;;;18.00;62.10;;;;;;5073740;28;20241;-63
2022/04/18 11:42:32;;;;;;;3.53;2.60;;;17.90;56.80;;;;;;5062730;28;20254;-70
2022/04/18 11:44:59;;;;;;;3.40;2.50;;;17.80;58.70;;;;;;5073287;28;20209;-60
2022/04/18 11:47:28;;;;;;;3.40;2.53;;;18.00;66.90;;;;;;5073371;28;20201;-60
2022/04/18 11:49:58;;;;;;;3.57;2.73;;;18.00;60.20;;;;;;5073416;28;20209;-64
2022/04/18 11:52:28;;;;;;;3.80;2.30;;;17.90;56.10;;;;;;5073579;28;20579;-64
2022/04/18 11:54:56;;;;;;;2.93;2.50;;;17.90;61.20;;;;;;5073269;28;20209;-63
2022/04/18 11:57:24;;;;;;;4.87;2.83;;;18.20;61.90;;;;;;5073380;28;20263;-67
2022/04/18 11:59:50;;;;;;;3.10;2.50;;;18.40;62.40;;;;;;5077543;28;20274;-65
2022/04/18 12:07:52;;;;;;;3.67;2.80;;;18.20;60.40;;;;;;5072312;28;20302;-63
2022/04/18 12:10:20;;;;;;;3.63;2.60;;;18.20;59.10;;;;;;5073310;28;20504;-69
2022/04/18 12:12:49;;;;;;;3.97;2.47;;;18.10;58.70;;;;;;5073277;28;20227;-67
2022/04/18 12:15:16;;;;;;;4.37;2.73;;;18.20;63.40;;;;;;5073078;28;20614;-66
2022/04/18 12:17:43;;;;;;;5.77;3.17;;;18.50;65.90;;;;;;5072262;28;20232;-66
2022/04/18 12:20:24;;;;;;;2.67;2.17;;;18.50;61.20;;;;;;5073084;28;20256;-67
2022/04/18 12:22:54;;;;;;;3.40;2.80;;;18.50;65.90;;;;;;5072799;28;20208;-62
2022/04/18 12:25:24;;;;;;;3.27;2.50;;;18.40;61.40;;;;;;5072336;28;20254;-62
2022/04/18 12:27:51;;;;;;;2.77;2.00;;;18.40;64.20;;;;;;5072624;28;20233;-63
2022/04/18 12:30:19;;;;;;;4.17;2.60;;;18.50;64.40;;;;;;5072406;28;20671;-63
2022/04/18 12:32:47;;;;;;;3.67;2.60;;;18.40;57.40;;;;;;5072294;28;20286;-63
2022/04/18 12:35:34;;;;;;;3.07;2.60;;;18.70;69.90;;;;;;5072662;28;20209;-63
2022/04/18 12:38:04;;;;;;;3.80;2.83;;;18.50;63.60;;;;;;5072415;28;20707;-63
2022/04/18 12:40:35;;;;;;;3.80;2.40;;;18.80;68.00;;;;;;5071655;28;20255;-63
2022/04/18 12:43:06;;;;;;;3.87;2.50;;;18.70;59.50;;;;;;5072253;28;20675;-63
2022/04/18 12:45:50;;;;;;;3.93;2.60;;;18.50;58.10;;;;;;5072569;28;20302;-62
2022/04/18 12:48:22;;;;;;;5.27;2.97;;;18.40;56.90;;;;;;5072092;28;20292;-64
2022/04/18 12:50:50;;;;;;;4.10;2.70;;;18.50;60.00;;;;;;5072392;28;20283;-63
2022/04/18 12:53:18;;;;;;;3.63;2.53;;;18.30;57.00;;;;;;5071812;28;20733;-63
2022/04/18 12:55:46;;;;;;;3.73;2.70;;;18.30;55.90;;;;;;5071705;28;20201;-63
2022/04/18 12:58:21;;;;;;;3.17;2.10;;;18.40;60.10;;;;;;5071612;28;20305;-63
2022/04/18 13:00:50;;;;;;;5.10;2.80;;;18.30;57.40;;;;;;5072019;28;20243;-63
2022/04/18 13:03:17;;;;;;;3.67;2.47;;;18.20;57.80;;;;;;5072041;28;20239;-63
2022/04/18 13:05:45;;;;;;;2.97;2.40;;;18.40;59.80;;;;;;5071277;28;20205;-63
2022/04/18 13:08:13;;;;;;;3.33;2.83;;;18.30;56.40;;;;;;5071644;28;20225;-63
2022/04/18 13:10:41;;;;;;;2.53;2.17;;;18.20;54.50;;;;;;5071742;28;20238;-63
2022/04/18 13:13:13;;;;;;;3.40;2.50;;;18.40;57.40;;;;;;5072036;28;20676;-63
2022/04/18 13:15:40;;;;;;;2.90;2.60;;;18.50;61.20;;;;;;5071368;28;20638;-62
2022/04/18 13:18:09;;;;;;;2.83;2.20;;;18.60;59.20;;;;;;5071239;28;20229;-63
2022/04/18 13:20:37;;;;;;;3.90;2.70;;;18.40;55.00;;;;;;5071762;28;20788;-62
2022/04/18 13:23:05;;;;;;;3.93;2.57;;;18.40;56.20;;;;;;5071932;28;20236;-63
2022/04/18 13:25:32;;;;;;;3.20;2.50;;;18.40;57.10;;;;;;5070646;28;20208;-63
2022/04/18 13:28:06;;;;;;;3.43;2.50;;;18.50;59.40;;;;;;5071248;28;20275;-63
2022/04/18 13:30:33;;;;;;;5.43;2.87;;;18.70;58.70;;;;;;5071696;28;20201;-63
2022/04/18 13:33:00;;;;;;;3.90;2.30;;;18.70;58.70;;;;;;5071627;28;20201;-62
2022/04/18 13:35:27;;;;;;;3.23;2.60;;;18.50;57.20;;;;;;5071672;28;20208;-62